Time;durP1;ratioP1;P1;durP2;ratioP2;P2;SDS_P1;SDS_P2;PMS_P1;PMS_P2;Temp;Humidity;BMP_temperature;BMP_pressure;BME280_temperature;BME280_humidity;BME280_pressure;Samples;Min_cycle;Max_cycle;Signal;HPM_P1;HPM_P2
2022/01/16 00:04:43;;;;;;;6.97;6.28;;;21.90;43.40;;;;;;5041194;28;43564;-64
2022/01/16 00:07:11;;;;;;;6.82;6.13;;;21.80;43.40;;;;;;5041252;28;43454;-63
2022/01/16 00:09:40;;;;;;;7.60;6.90;;;21.80;43.40;;;;;;5042369;28;43507;-64
2022/01/16 00:12:08;;;;;;;6.88;6.28;;;21.80;43.30;;;;;;5043256;28;45999;-63
2022/01/16 00:14:35;;;;;;;7.40;6.70;;;21.80;43.40;;;;;;5042951;28;43414;-63
2022/01/16 00:17:04;;;;;;;7.60;6.72;;;21.80;43.40;;;;;;5043833;28;43472;-63
2022/01/16 00:19:31;;;;;;;7.38;6.68;;;21.80;43.40;;;;;;5043693;28;43515;-64
2022/01/16 00:22:00;;;;;;;7.55;6.85;;;21.70;43.40;;;;;;5046592;28;45863;-63
2022/01/16 00:24:27;;;;;;;8.43;7.53;;;21.70;43.40;;;;;;5048814;28;43464;-64
2022/01/16 00:26:54;;;;;;;7.57;6.88;;;21.70;43.30;;;;;;5044067;28;43451;-64
2022/01/16 00:29:22;;;;;;;7.93;7.18;;;21.70;43.40;;;;;;5052944;28;43506;-63
2022/01/16 00:31:49;;;;;;;8.32;7.53;;;21.70;43.30;;;;;;5049545;28;43690;-64
2022/01/16 00:34:17;;;;;;;9.23;8.32;;;21.70;43.40;;;;;;5047806;28;43777;-64
2022/01/16 00:36:45;;;;;;;9.05;8.15;;;21.60;43.20;;;;;;5047563;28;43492;-63
2022/01/16 00:39:12;;;;;;;8.65;7.75;;;21.60;43.30;;;;;;5046522;28;43447;-63
2022/01/16 00:41:40;;;;;;;8.88;8.07;;;21.60;43.20;;;;;;5047557;28;43632;-63
2022/01/16 00:44:08;;;;;;;10.05;9.05;;;21.60;43.20;;;;;;5049252;28;44778;-63
2022/01/16 00:46:36;;;;;;;9.43;8.48;;;21.60;43.00;;;;;;5050755;28;43523;-63
2022/01/16 00:49:04;;;;;;;9.20;8.30;;;21.60;43.10;;;;;;5052685;28;43558;-63
2022/01/16 00:51:32;;;;;;;8.75;7.95;;;21.50;43.10;;;;;;5052894;28;43577;-63
2022/01/16 00:53:59;;;;;;;9.80;8.82;;;21.50;43.00;;;;;;5050722;28;43544;-64
2022/01/16 00:56:27;;;;;;;9.80;8.82;;;21.50;43.10;;;;;;5083915;27;43427;-63
2022/01/16 00:58:54;;;;;;;9.85;8.85;;;21.50;43.00;;;;;;5046854;28;43495;-64
2022/01/16 01:01:21;;;;;;;9.63;8.70;;;21.50;43.10;;;;;;5049874;28;45083;-63
2022/01/16 01:03:49;;;;;;;10.05;9.05;;;21.50;43.10;;;;;;5049922;28;43486;-64
2022/01/16 01:06:17;;;;;;;9.98;8.98;;;21.40;43.00;;;;;;5045948;28;43517;-64
2022/01/16 01:08:44;;;;;;;10.32;9.32;;;21.40;43.00;;;;;;5048122;28;43478;-63
2022/01/16 01:11:16;;;;;;;10.32;9.23;;;21.40;43.00;;;;;;5051371;28;44691;-63
2022/01/16 01:14:39;;;;;;;11.27;10.18;;;21.40;42.90;;;;;;5053771;28;43425;-63
2022/01/16 01:16:50;;;;;;;10.68;9.68;;;21.40;43.00;;;;;;5045931;27;43596;-63
2022/01/16 01:19:21;;;;;;;10.77;9.73;;;21.30;43.00;;;;;;5051246;28;43477;-64
2022/01/16 01:21:49;;;;;;;10.38;9.38;;;21.30;43.00;;;;;;5052541;28;44793;-63
2022/01/16 01:24:18;;;;;;;10.55;9.55;;;21.30;42.90;;;;;;5054504;28;43515;-63
2022/01/16 01:27:13;;;;;;;10.75;9.75;;;21.30;42.90;;;;;;5054652;28;43463;-63
2022/01/16 01:29:37;;;;;;;10.48;9.48;;;21.30;43.00;;;;;;5050429;28;43510;-63
2022/01/16 01:32:05;;;;;;;11.45;10.27;;;21.20;42.90;;;;;;5049231;28;43560;-63
2022/01/16 01:34:37;;;;;;;10.70;9.60;;;21.20;42.90;;;;;;5078936;27;43574;-64
2022/01/16 01:37:04;;;;;;;10.30;9.30;;;21.20;43.60;;;;;;5043710;28;43444;-63
2022/01/16 01:39:32;;;;;;;11.38;10.27;;;21.20;42.90;;;;;;5032759;28;44009;-63
2022/01/16 01:42:09;;;;;;;10.73;9.68;;;21.20;42.90;;;;;;5046057;28;43818;-63
2022/01/16 01:52:58;;;;;;;11.23;10.13;;;21.10;42.90;;;;;;5075723;27;44729;-64
2022/01/16 01:55:26;;;;;;;11.43;10.32;;;21.10;42.90;;;;;;5043536;28;43735;-63
2022/01/16 01:57:54;;;;;;;10.85;9.85;;;21.10;43.00;;;;;;5045111;28;43786;-64
2022/01/16 02:00:22;;;;;;;10.50;9.50;;;21.10;43.10;;;;;;5040851;28;43602;-64
2022/01/16 02:03:42;;;;;;;12.35;11.15;;;21.10;43.00;;;;;;5044766;28;43783;-63
2022/01/16 02:05:42;;;;;;;10.90;9.85;;;21.10;43.00;;;;;;5037920;28;43699;-63
2022/01/16 02:08:10;;;;;;;10.82;9.82;;;21.00;43.00;;;;;;5043704;28;43445;-63
2022/01/16 02:10:40;;;;;;;11.85;10.75;;;21.00;43.00;;;;;;5062612;28;43454;-63
2022/01/16 02:13:18;;;;;;;11.18;10.13;;;21.00;43.00;;;;;;5046817;28;43667;-63
2022/01/16 02:34:42;;;;;;;11.30;10.18;;;20.90;43.20;;;;;;5045010;28;44876;-63
2022/01/16 02:37:13;;;;;;;10.85;9.85;;;20.90;43.30;;;;;;5048214;28;43599;-63
2022/01/16 02:39:45;;;;;;;11.20;10.20;;;20.90;43.30;;;;;;5049389;28;43461;-64
2022/01/16 02:42:13;;;;;;;11.02;10.02;;;20.90;43.30;;;;;;5046238;28;43452;-64
2022/01/16 02:44:46;;;;;;;10.05;9.15;;;20.90;43.40;;;;;;5049857;28;43808;-63
2022/01/16 02:47:18;;;;;;;11.10;10.00;;;20.90;43.40;;;;;;5046194;28;44016;-64
2022/01/16 02:49:50;;;;;;;;;;;20.90;43.40;;;;;;5051916;28;43478;-64
2022/01/16 02:52:19;;;;;;;;;;;20.90;43.50;;;;;;5083432;27;43455;-64
2022/01/16 02:54:49;;;;;;;11.52;10.43;;;20.80;43.50;;;;;;5051620;28;45445;-63
2022/01/16 02:57:18;;;;;;;;;;;20.80;43.50;;;;;;5045189;28;43486;-63
2022/01/16 02:59:52;;;;;;;11.18;10.00;;;20.80;43.50;;;;;;5047983;28;43477;-64
2022/01/16 03:02:22;;;;;;;10.90;9.80;;;20.80;43.50;;;;;;5075994;27;43669;-64
2022/01/16 03:04:50;;;;;;;11.45;10.35;;;20.80;43.50;;;;;;5050628;28;44240;-63
2022/01/16 03:07:18;;;;;;;11.43;10.32;;;20.80;43.50;;;;;;5049228;28;43514;-64
2022/01/16 03:12:36;;;;;;;;;;;20.80;43.50;;;;;;5047686;28;43431;-64
2022/01/16 03:15:06;;;;;;;11.98;10.82;;;20.70;43.50;;;;;;5050596;28;44689;-63
2022/01/16 03:17:40;;;;;;;12.43;11.23;;;20.70;43.60;;;;;;5050197;28;43668;-63
2022/01/16 03:22:54;;;;;;;12.13;10.90;;;20.70;43.50;;;;;;5049174;28;43514;-64
2022/01/16 03:25:22;;;;;;;11.70;10.50;;;20.70;43.60;;;;;;5045695;28;43968;-63
2022/01/16 03:27:49;;;;;;;11.65;10.48;;;20.60;43.50;;;;;;5038364;28;43527;-64
2022/01/16 03:30:16;;;;;;;12.23;11.02;;;20.60;43.60;;;;;;5044816;28;43457;-63
2022/01/16 03:32:44;;;;;;;11.32;10.23;;;20.60;43.60;;;;;;5041779;28;44175;-63
2022/01/16 03:35:11;;;;;;;11.68;10.57;;;20.60;43.50;;;;;;5039390;28;44672;-63
2022/01/16 03:37:40;;;;;;;12.35;11.13;;;20.60;43.50;;;;;;5041578;28;43550;-63
2022/01/16 03:40:11;;;;;;;11.68;10.52;;;20.60;43.50;;;;;;5041612;28;43571;-63
2022/01/16 03:42:40;;;;;;;12.35;11.15;;;20.60;43.50;;;;;;5042383;28;43605;-63
2022/01/16 03:45:09;;;;;;;12.10;10.98;;;20.60;43.50;;;;;;5058095;28;45990;-64
2022/01/16 03:47:37;;;;;;;12.45;11.25;;;20.60;43.50;;;;;;5044336;28;43947;-63
2022/01/16 03:50:05;;;;;;;12.30;11.15;;;20.60;43.60;;;;;;5048063;28;43643;-64
2022/01/16 03:52:33;;;;;;;12.55;11.35;;;20.60;43.60;;;;;;5044045;28;43454;-63
2022/01/16 03:55:02;;;;;;;11.50;10.40;;;20.60;43.60;;;;;;5042397;28;44059;-63
2022/01/16 03:57:30;;;;;;;11.95;10.85;;;20.50;43.60;;;;;;5044942;28;43439;-64
2022/01/16 03:59:57;;;;;;;11.90;10.73;;;20.60;43.70;;;;;;5047473;28;43449;-64
2022/01/16 04:02:25;;;;;;;12.25;11.05;;;20.50;43.60;;;;;;5043286;28;43485;-64
2022/01/16 04:04:53;;;;;;;12.82;11.63;;;20.50;43.60;;;;;;5049156;28;44696;-64
2022/01/16 04:07:26;;;;;;;12.93;11.65;;;20.50;43.60;;;;;;5049216;28;43908;-64
2022/01/16 04:09:54;;;;;;;12.15;10.95;;;20.50;43.60;;;;;;5050142;28;43462;-64
2022/01/16 04:12:23;;;;;;;12.63;11.35;;;20.50;43.60;;;;;;5048141;28;43507;-63
2022/01/16 04:17:21;;;;;;;12.13;10.93;;;20.40;43.60;;;;;;5050996;28;43495;-64
2022/01/16 04:19:49;;;;;;;12.30;11.00;;;20.40;43.60;;;;;;5053441;28;43488;-63
2022/01/16 04:22:17;;;;;;;12.57;11.38;;;20.40;43.60;;;;;;5048425;28;43484;-64
2022/01/16 04:24:45;;;;;;;12.82;11.52;;;20.40;43.60;;;;;;5047421;28;43877;-64
2022/01/16 04:27:13;;;;;;;13.85;12.45;;;20.40;43.70;;;;;;5049984;28;43559;-63
2022/01/16 04:29:45;;;;;;;12.70;11.50;;;20.40;43.70;;;;;;5048472;28;43467;-63
2022/01/16 04:32:13;;;;;;;12.80;11.55;;;20.30;43.60;;;;;;5050305;28;43550;-64
2022/01/16 04:34:40;;;;;;;12.90;11.70;;;20.40;43.70;;;;;;5051003;28;43855;-63
2022/01/16 04:37:08;;;;;;;13.23;11.82;;;20.30;43.60;;;;;;5053023;28;43514;-63
2022/01/16 04:39:36;;;;;;;13.32;11.93;;;20.30;43.60;;;;;;5053032;28;43557;-64
2022/01/16 04:44:52;;;;;;;13.18;11.82;;;20.30;43.60;;;;;;5052091;28;45407;-63
2022/01/16 04:47:20;;;;;;;13.13;11.73;;;20.30;43.70;;;;;;5054988;28;43469;-64
2022/01/16 04:49:48;;;;;;;12.60;11.40;;;20.30;43.60;;;;;;5052312;28;43417;-64
2022/01/16 04:52:15;;;;;;;14.13;12.73;;;20.30;43.70;;;;;;5048168;28;43512;-64
2022/01/16 04:54:43;;;;;;;14.10;12.70;;;20.20;43.70;;;;;;5051731;28;44055;-64
2022/01/16 04:57:13;;;;;;;13.18;11.77;;;20.20;43.60;;;;;;5043532;28;43535;-63
2022/01/16 04:59:41;;;;;;;13.80;12.40;;;20.20;43.70;;;;;;5051665;28;43487;-64
2022/01/16 05:02:08;;;;;;;13.38;12.02;;;20.20;43.70;;;;;;5047818;28;43626;-64
2022/01/16 05:04:36;;;;;;;14.35;12.85;;;20.20;43.70;;;;;;5044699;28;43584;-63
2022/01/16 05:07:04;;;;;;;14.52;13.02;;;20.20;43.70;;;;;;5049219;28;43547;-63
2022/01/16 05:09:31;;;;;;;13.88;12.43;;;20.20;43.70;;;;;;5050774;28;43466;-63
2022/01/16 05:12:02;;;;;;;13.07;11.77;;;20.20;43.70;;;;;;5043469;28;43429;-64
2022/01/16 05:17:16;;;;;;;14.43;12.98;;;20.20;43.80;;;;;;5042861;28;44006;-64
2022/01/16 05:19:44;;;;;;;13.80;12.30;;;20.10;43.70;;;;;;5042216;28;43535;-64
2022/01/16 05:22:12;;;;;;;13.80;12.40;;;20.10;43.70;;;;;;5043632;28;43574;-63
2022/01/16 05:24:39;;;;;;;14.52;13.02;;;20.10;43.80;;;;;;5044457;28;44837;-64
2022/01/16 05:27:07;;;;;;;14.35;12.85;;;20.10;43.80;;;;;;5044175;28;43984;-64
2022/01/16 05:29:36;;;;;;;13.63;12.23;;;20.10;43.80;;;;;;5045143;28;43500;-63
2022/01/16 05:32:05;;;;;;;13.07;11.68;;;20.10;43.80;;;;;;5044746;28;43471;-64
2022/01/16 05:34:32;;;;;;;15.40;13.40;;;20.10;43.80;;;;;;5043856;28;44634;-63
2022/01/16 05:36:59;;;;;;;14.38;12.88;;;20.10;43.80;;;;;;5042557;28;43484;-63
2022/01/16 05:39:28;;;;;;;14.20;12.75;;;20.10;43.90;;;;;;5046941;28;43529;-64
2022/01/16 05:41:56;;;;;;;13.43;12.02;;;20.00;43.80;;;;;;5028818;28;43550;-63
2022/01/16 05:44:23;;;;;;;15.02;13.43;;;20.00;43.80;;;;;;5046547;28;45830;-64
2022/01/16 05:46:51;;;;;;;15.18;13.60;;;20.00;43.80;;;;;;5046577;28;43412;-64
2022/01/16 05:49:18;;;;;;;14.48;12.98;;;20.00;43.80;;;;;;5080096;27;43458;-64
2022/01/16 05:51:46;;;;;;;14.80;13.07;;;20.00;43.80;;;;;;5047378;28;43462;-64
2022/01/16 05:54:13;;;;;;;14.40;12.90;;;20.00;43.90;;;;;;5046907;28;44209;-64
2022/01/16 05:56:40;;;;;;;13.60;12.20;;;20.00;43.90;;;;;;5061546;28;43696;-63
2022/01/16 05:59:08;;;;;;;14.05;12.55;;;19.90;43.80;;;;;;5046912;28;43517;-64
2022/01/16 06:01:36;;;;;;;14.10;12.65;;;19.90;43.80;;;;;;5048610;28;43417;-64
2022/01/16 06:04:04;;;;;;;13.50;12.10;;;19.90;43.90;;;;;;5040335;28;44176;-63
2022/01/16 06:06:31;;;;;;;15.27;12.95;;;19.90;43.80;;;;;;5042684;28;43521;-63
2022/01/16 06:08:59;;;;;;;16.08;14.38;;;19.90;43.90;;;;;;5081838;27;43488;-64
2022/01/16 06:11:27;;;;;;;15.07;13.10;;;19.90;43.90;;;;;;5046636;28;43523;-63
2022/01/16 06:13:54;;;;;;;14.65;12.88;;;19.90;43.80;;;;;;5050124;28;44198;-64
2022/01/16 06:16:22;;;;;;;15.55;13.60;;;19.90;43.80;;;;;;5047508;28;44288;-64
2022/01/16 06:18:49;;;;;;;15.30;13.70;;;19.90;43.90;;;;;;5048598;28;43415;-64
2022/01/16 06:21:17;;;;;;;14.82;13.25;;;19.90;43.90;;;;;;5049565;28;43604;-63
2022/01/16 06:23:44;;;;;;;15.75;13.85;;;19.90;43.90;;;;;;5049510;28;43782;-64
2022/01/16 06:26:11;;;;;;;15.65;13.90;;;19.80;43.90;;;;;;5051972;28;43544;-63
2022/01/16 06:28:39;;;;;;;15.98;14.27;;;19.80;43.90;;;;;;5050478;28;43516;-64
2022/01/16 06:31:07;;;;;;;15.10;13.50;;;19.80;43.90;;;;;;5047657;28;44177;-64
2022/01/16 06:33:34;;;;;;;15.65;13.90;;;19.80;43.90;;;;;;5052930;28;43823;-64
2022/01/16 06:36:02;;;;;;;15.57;13.93;;;19.80;43.90;;;;;;5047459;28;43764;-64
2022/01/16 06:38:30;;;;;;;16.02;13.80;;;19.80;43.90;;;;;;5049491;28;43518;-66
2022/01/16 06:40:57;;;;;;;15.23;13.25;;;19.80;43.90;;;;;;5081480;27;43556;-64
2022/01/16 06:43:25;;;;;;;15.95;13.75;;;19.80;43.90;;;;;;5052418;28;45089;-64
2022/01/16 06:45:54;;;;;;;17.67;14.55;;;19.80;44.00;;;;;;5049598;28;43684;-64
2022/01/16 06:48:22;;;;;;;17.98;15.57;;;19.80;43.90;;;;;;5050874;28;43446;-64
2022/01/16 06:50:50;;;;;;;17.15;15.05;;;19.70;43.90;;;;;;5048652;28;43527;-63
2022/01/16 06:53:17;;;;;;;16.73;14.80;;;19.70;43.90;;;;;;5050446;28;44136;-64
2022/01/16 06:55:45;;;;;;;18.05;15.45;;;19.70;43.90;;;;;;5048199;28;44817;-64
2022/01/16 06:58:12;;;;;;;16.77;14.98;;;19.70;43.90;;;;;;5048699;28;43447;-64
2022/01/16 07:00:40;;;;;;;17.17;14.95;;;19.70;44.00;;;;;;5042806;28;43624;-63
2022/01/16 07:03:09;;;;;;;16.80;14.63;;;19.70;44.00;;;;;;5039752;28;44926;-63
2022/01/16 07:05:36;;;;;;;17.45;15.55;;;19.70;43.90;;;;;;5039050;28;43420;-63
2022/01/16 07:08:04;;;;;;;17.15;15.30;;;19.70;43.90;;;;;;5038511;28;43553;-64
2022/01/16 07:10:31;;;;;;;17.88;15.15;;;19.70;44.00;;;;;;5042408;28;43544;-64
2022/01/16 07:12:59;;;;;;;18.13;16.05;;;19.70;44.00;;;;;;5042527;28;44843;-64
2022/01/16 07:15:27;;;;;;;17.58;15.02;;;19.70;44.10;;;;;;5040057;28;44300;-64
2022/01/16 07:17:55;;;;;;;18.90;15.15;;;19.70;44.20;;;;;;5041615;28;43500;-63
2022/01/16 07:20:22;;;;;;;17.13;14.90;;;19.70;44.20;;;;;;5044407;28;43590;-63
2022/01/16 07:22:49;;;;;;;17.73;14.55;;;19.70;44.10;;;;;;5042785;28;46253;-64
2022/01/16 07:25:17;;;;;;;16.55;14.70;;;19.70;44.10;;;;;;5045425;28;43542;-64
2022/01/16 07:27:44;;;;;;;16.95;15.13;;;19.70;44.10;;;;;;5044952;28;43539;-63
2022/01/16 07:30:12;;;;;;;17.17;14.50;;;19.60;44.10;;;;;;5045729;28;43528;-63
2022/01/16 07:32:39;;;;;;;17.20;14.77;;;19.70;44.10;;;;;;5046832;28;44359;-64
2022/01/16 07:35:07;;;;;;;15.82;14.13;;;19.70;44.20;;;;;;5048100;28;43798;-64
2022/01/16 07:37:55;;;;;;;16.23;14.15;;;19.70;44.20;;;;;;5048505;28;43513;-64
2022/01/16 07:40:24;;;;;;;15.07;13.45;;;19.70;44.10;;;;;;5048188;28;43448;-63
2022/01/16 07:42:52;;;;;;;16.70;14.52;;;19.70;44.10;;;;;;5047675;28;43961;-63
2022/01/16 07:45:21;;;;;;;16.85;14.35;;;19.70;44.10;;;;;;5050443;28;43510;-63
2022/01/16 07:47:48;;;;;;;15.95;13.75;;;19.70;44.00;;;;;;5046213;28;43479;-64
2022/01/16 07:50:18;;;;;;;15.35;13.75;;;19.70;44.00;;;;;;5047770;28;43528;-63
2022/01/16 07:52:48;;;;;;;16.77;13.95;;;19.70;44.10;;;;;;5045328;28;44033;-63
2022/01/16 07:55:16;;;;;;;14.88;13.18;;;19.70;44.00;;;;;;5045275;28;45152;-63
2022/01/16 07:57:44;;;;;;;15.50;13.48;;;19.80;44.10;;;;;;5045214;28;43503;-63
2022/01/16 08:00:29;;;;;;;14.15;12.65;;;19.80;44.10;;;;;;5047258;28;43634;-63
2022/01/16 08:02:57;;;;;;;15.15;12.70;;;19.80;44.10;;;;;;5047252;28;43814;-63
2022/01/16 08:05:26;;;;;;;15.82;13.13;;;19.80;44.00;;;;;;5047048;28;43451;-63
2022/01/16 08:07:57;;;;;;;14.30;12.23;;;19.80;44.00;;;;;;5044210;28;43506;-64
2022/01/16 08:10:24;;;;;;;14.75;13.13;;;19.90;44.10;;;;;;5046574;28;43521;-63
2022/01/16 08:12:53;;;;;;;14.57;12.48;;;19.90;44.10;;;;;;5061842;28;43935;-63
2022/01/16 08:15:21;;;;;;;13.60;12.18;;;19.90;44.10;;;;;;5047095;28;43558;-64
2022/01/16 08:17:48;;;;;;;13.10;11.75;;;19.90;44.00;;;;;;5047046;28;43503;-63
2022/01/16 08:20:16;;;;;;;13.57;11.65;;;19.90;44.00;;;;;;5044923;28;43511;-64
2022/01/16 08:22:45;;;;;;;14.07;11.32;;;19.90;44.00;;;;;;5044838;28;45777;-64
2022/01/16 08:25:13;;;;;;;13.20;11.70;;;19.90;43.90;;;;;;5046201;28;43530;-64
2022/01/16 08:27:41;;;;;;;12.07;10.35;;;19.90;43.90;;;;;;5045857;28;43458;-64
2022/01/16 08:30:10;;;;;;;11.82;10.63;;;19.90;44.00;;;;;;5046090;28;43549;-63
2022/01/16 08:32:43;;;;;;;11.13;9.93;;;20.00;44.00;;;;;;5050234;28;43809;-63
2022/01/16 08:35:12;;;;;;;12.13;10.82;;;20.00;44.00;;;;;;5053224;28;43450;-64
2022/01/16 08:37:40;;;;;;;11.15;9.95;;;20.00;43.90;;;;;;5051088;28;43531;-63
2022/01/16 08:40:10;;;;;;;10.80;9.70;;;20.00;43.90;;;;;;5053230;28;43498;-63
2022/01/16 08:42:40;;;;;;;9.93;8.75;;;20.00;43.90;;;;;;5080216;27;44108;-63
2022/01/16 08:45:08;;;;;;;10.93;9.68;;;20.00;43.90;;;;;;5048693;28;43434;-64
2022/01/16 08:47:36;;;;;;;10.15;9.07;;;20.00;43.90;;;;;;5045524;28;43595;-64
2022/01/16 08:50:06;;;;;;;10.65;9.48;;;20.00;43.90;;;;;;5044191;28;43524;-64
2022/01/16 08:52:35;;;;;;;9.80;8.43;;;20.00;43.90;;;;;;5044074;28;43769;-63
2022/01/16 08:55:03;;;;;;;9.93;8.90;;;20.00;43.90;;;;;;5044725;28;43502;-64
2022/01/16 08:57:30;;;;;;;9.38;8.07;;;20.00;43.90;;;;;;5045311;28;43474;-63
2022/01/16 08:59:58;;;;;;;9.15;7.93;;;20.00;43.90;;;;;;5044669;28;43455;-64
2022/01/16 09:02:25;;;;;;;8.93;7.90;;;20.00;43.80;;;;;;5045748;28;43874;-63
2022/01/16 09:04:53;;;;;;;8.45;7.55;;;20.00;43.90;;;;;;5045167;28;43541;-64
2022/01/16 09:07:21;;;;;;;8.73;7.82;;;20.10;43.90;;;;;;5042285;28;43492;-64
2022/01/16 09:09:48;;;;;;;9.07;8.10;;;20.00;43.90;;;;;;5044631;28;43490;-63
2022/01/16 09:12:16;;;;;;;8.15;7.32;;;20.10;43.90;;;;;;5044718;28;43632;-64
2022/01/16 09:14:44;;;;;;;8.07;7.25;;;20.10;43.90;;;;;;5042523;28;44834;-64
2022/01/16 09:17:11;;;;;;;8.18;7.32;;;20.10;43.90;;;;;;5046128;28;43397;-64
2022/01/16 09:19:39;;;;;;;7.20;6.50;;;20.10;43.90;;;;;;5046491;28;43535;-62
2022/01/16 09:22:06;;;;;;;8.93;7.45;;;20.10;43.90;;;;;;5047123;28;44719;-62
2022/01/16 09:24:34;;;;;;;9.23;8.13;;;20.10;43.90;;;;;;5049186;28;43668;-64
2022/01/16 09:27:01;;;;;;;9.55;7.63;;;20.10;44.10;;;;;;5049333;28;43549;-63
2022/01/16 09:29:29;;;;;;;8.32;7.30;;;20.10;44.20;;;;;;5047566;28;43432;-63
2022/01/16 09:31:57;;;;;;;7.43;6.70;;;20.20;44.20;;;;;;5049823;28;44672;-63
2022/01/16 09:34:25;;;;;;;8.68;7.03;;;20.20;44.20;;;;;;5052037;28;43561;-62
2022/01/16 09:36:52;;;;;;;10.70;7.18;;;20.30;44.10;;;;;;5051381;28;43437;-63
2022/01/16 09:39:20;;;;;;;8.48;6.70;;;20.30;44.10;;;;;;5047146;28;43589;-63
2022/01/16 09:41:47;;;;;;;6.75;6.07;;;20.40;44.10;;;;;;5049141;28;43795;-64
2022/01/16 09:44:17;;;;;;;7.75;6.30;;;20.50;44.00;;;;;;5046126;28;43980;-63
2022/01/16 09:46:45;;;;;;;6.13;5.53;;;20.60;43.90;;;;;;5049437;28;43494;-61
2022/01/16 09:49:13;;;;;;;7.78;6.40;;;20.70;43.80;;;;;;5052127;28;43515;-62
2022/01/16 09:51:41;;;;;;;7.28;6.25;;;20.80;43.80;;;;;;5051190;28;43776;-62
2022/01/16 09:54:09;;;;;;;7.00;6.30;;;21.00;43.70;;;;;;5052123;28;44006;-62
2022/01/16 09:56:36;;;;;;;7.75;6.10;;;21.20;43.50;;;;;;5048909;28;43414;-62
2022/01/16 09:59:05;;;;;;;6.80;5.95;;;21.40;43.30;;;;;;5050754;28;43633;-62
2022/01/16 10:01:33;;;;;;;6.82;5.82;;;21.50;43.00;;;;;;5052889;28;44704;-61
2022/01/16 10:04:01;;;;;;;7.20;5.80;;;21.70;43.00;;;;;;5050235;28;44214;-62
2022/01/16 10:06:28;;;;;;;7.07;5.43;;;21.80;43.00;;;;;;5052646;28;43529;-62
2022/01/16 10:08:56;;;;;;;6.80;5.50;;;22.00;43.10;;;;;;5044985;28;43515;-63
2022/01/16 10:11:30;;;;;;;6.70;5.43;;;22.10;42.80;;;;;;5048070;28;43784;-62
2022/01/16 10:14:16;;;;;;;6.10;5.25;;;22.30;42.80;;;;;;5051566;28;43459;-62
2022/01/16 10:16:43;;;;;;;7.60;5.57;;;22.40;42.90;;;;;;5051272;28;43445;-62
2022/01/16 10:19:27;;;;;;;6.35;4.90;;;22.50;42.80;;;;;;5055928;28;43601;-62
2022/01/16 10:22:06;;;;;;;6.78;5.03;;;22.70;42.80;;;;;;5052962;28;44042;-62
2022/01/16 10:24:34;;;;;;;5.30;4.80;;;22.80;42.70;;;;;;5054769;28;43459;-64
2022/01/16 10:27:08;;;;;;;6.95;5.10;;;22.90;42.50;;;;;;5056384;28;43438;-64
2022/01/16 10:29:39;;;;;;;5.72;4.57;;;23.00;42.50;;;;;;5047752;28;43561;-64
2022/01/16 10:32:11;;;;;;;5.10;4.60;;;23.10;42.40;;;;;;5041554;28;44247;-65
2022/01/16 10:34:40;;;;;;;6.72;4.68;;;23.20;42.20;;;;;;5039977;28;43398;-62
2022/01/16 10:37:30;;;;;;;7.93;5.00;;;23.20;42.20;;;;;;5045786;28;43439;-64
2022/01/16 10:40:07;;;;;;;7.45;4.60;;;23.30;42.20;;;;;;5042242;28;44149;-64
2022/01/16 10:42:35;;;;;;;5.40;4.43;;;23.40;42.10;;;;;;5043089;28;44762;-64
2022/01/16 10:45:13;;;;;;;6.43;4.43;;;23.40;42.10;;;;;;5043287;28;44095;-65
2022/01/16 10:47:47;;;;;;;4.78;4.30;;;23.50;41.90;;;;;;5043011;28;43547;-65
2022/01/16 10:50:16;;;;;;;5.07;4.30;;;23.60;41.90;;;;;;5045650;28;43534;-63
2022/01/16 10:53:03;;;;;;;5.28;4.50;;;23.60;41.80;;;;;;5043929;28;43794;-63
2022/01/16 10:55:49;;;;;;;5.90;4.40;;;23.60;41.90;;;;;;5041971;28;43756;-64
2022/01/16 10:58:38;;;;;;;7.50;4.68;;;23.60;42.20;;;;;;5046545;28;43509;-65
2022/01/16 11:01:19;;;;;;;5.38;4.88;;;23.70;41.90;;;;;;5044767;28;43969;-65
2022/01/16 11:03:49;;;;;;;7.65;4.93;;;23.70;41.80;;;;;;5044061;28;44670;-65
2022/01/16 11:06:21;;;;;;;6.88;4.82;;;23.70;41.70;;;;;;5044809;28;43782;-65
2022/01/16 11:08:56;;;;;;;5.13;4.43;;;23.70;41.80;;;;;;5044413;28;43538;-64
2022/01/16 11:11:25;;;;;;;6.63;4.30;;;23.70;41.70;;;;;;5042022;28;43590;-65
2022/01/16 11:13:55;;;;;;;6.75;4.80;;;23.70;41.80;;;;;;5043720;28;44205;-66
2022/01/16 11:16:24;;;;;;;6.25;5.15;;;23.70;41.70;;;;;;5043767;28;43481;-67
2022/01/16 11:18:52;;;;;;;6.55;4.63;;;23.70;41.80;;;;;;5045626;28;43517;-66
2022/01/16 11:21:27;;;;;;;6.85;4.38;;;23.70;41.80;;;;;;5075895;27;43509;-66
2022/01/16 11:24:12;;;;;;;4.88;4.38;;;23.70;41.80;;;;;;5084190;27;43936;-65
2022/01/16 11:26:40;;;;;;;7.20;4.30;;;23.70;41.80;;;;;;5046596;28;43458;-65
2022/01/16 11:29:08;;;;;;;7.55;4.90;;;23.70;41.70;;;;;;5050161;28;43575;-66
2022/01/16 11:31:36;;;;;;;5.65;4.38;;;23.70;42.00;;;;;;5078175;27;43526;-66
2022/01/16 11:34:04;;;;;;;6.85;4.65;;;23.70;41.80;;;;;;5047813;28;44209;-65
2022/01/16 11:36:32;;;;;;;7.45;4.40;;;23.70;41.80;;;;;;5050135;28;43792;-65
2022/01/16 11:39:06;;;;;;;4.72;4.13;;;23.70;41.80;;;;;;5047828;28;43579;-65
2022/01/16 11:41:39;;;;;;;6.60;4.75;;;23.70;41.70;;;;;;5080862;27;43472;-65
2022/01/16 11:44:20;;;;;;;6.63;4.40;;;23.70;41.60;;;;;;5046608;28;44183;-66
2022/01/16 11:46:55;;;;;;;;;;;23.80;41.40;;;;;;5049560;28;43441;-65
2022/01/16 11:49:41;;;;;;;5.55;4.00;;;23.80;41.70;;;;;;5050208;28;43481;-66
2022/01/16 11:52:14;;;;;;;5.38;4.07;;;23.70;41.60;;;;;;5045387;28;43499;-66
2022/01/16 11:54:44;;;;;;;6.20;4.40;;;23.80;41.70;;;;;;5045161;28;44669;-64
2022/01/16 11:57:28;;;;;;;5.30;4.55;;;23.80;41.60;;;;;;5042804;28;43768;-66
2022/01/16 12:00:14;;;;;;;5.75;4.40;;;23.80;41.40;;;;;;5074516;27;43542;-65
2022/01/16 12:02:52;;;;;;;5.15;4.03;;;23.80;41.60;;;;;;5040944;28;43395;-64
2022/01/16 12:05:30;;;;;;;5.90;4.55;;;23.80;41.50;;;;;;5040865;28;43893;-65
2022/01/16 12:08:07;;;;;;;6.65;3.97;;;23.80;41.60;;;;;;5042117;28;44080;-64
2022/01/16 12:10:50;;;;;;;6.07;4.15;;;23.80;41.60;;;;;;5037897;28;43544;-64
2022/01/16 12:13:42;;;;;;;5.45;4.13;;;23.80;41.60;;;;;;5044522;28;43503;-64
2022/01/16 12:16:33;;;;;;;5.32;4.10;;;23.70;41.60;;;;;;5043456;28;43792;-65
2022/01/16 12:19:33;;;;;;;4.68;3.88;;;23.70;41.70;;;;;;5025788;28;44137;-65
2022/01/16 12:22:02;;;;;;;5.90;4.20;;;23.70;41.60;;;;;;5046391;28;43504;-63
2022/01/16 12:24:35;;;;;;;5.43;4.03;;;23.70;41.70;;;;;;5045454;28;43556;-66
2022/01/16 12:27:29;;;;;;;5.88;3.95;;;23.70;41.70;;;;;;5045263;28;43637;-65
2022/01/16 12:30:14;;;;;;;4.32;3.55;;;23.70;41.60;;;;;;5044172;28;43499;-64
2022/01/16 12:33:28;;;;;;;5.35;4.10;;;23.70;41.70;;;;;;5077869;27;43461;-64
2022/01/16 12:36:05;;;;;;;5.85;3.80;;;23.60;41.80;;;;;;5029701;28;43987;-64
2022/01/16 12:38:34;;;;;;;4.30;3.90;;;23.70;41.90;;;;;;5062594;28;44984;-65
2022/01/16 12:41:06;;;;;;;6.43;3.78;;;23.60;41.70;;;;;;5046900;28;44355;-65
2022/01/16 12:43:56;;;;;;;5.88;3.90;;;23.50;41.70;;;;;;5046003;28;43641;-65
2022/01/16 12:46:28;;;;;;;5.22;3.88;;;23.50;41.80;;;;;;5079928;27;43567;-66
2022/01/16 12:48:59;;;;;;;5.07;3.65;;;23.50;41.70;;;;;;5047648;28;45242;-65
2022/01/16 12:51:31;;;;;;;4.68;3.50;;;23.50;41.90;;;;;;5048603;28;43526;-65
2022/01/16 12:54:03;;;;;;;4.80;3.42;;;23.50;41.90;;;;;;5063063;28;43451;-64
2022/01/16 12:56:34;;;;;;;5.05;3.10;;;23.50;41.90;;;;;;5029720;28;43559;-64
2022/01/16 12:59:09;;;;;;;;;;;23.50;41.90;;;;;;5068680;28;43924;-64
2022/01/16 13:01:43;;;;;;;3.83;3.13;;;23.50;41.90;;;;;;5047660;28;43515;-64
2022/01/16 13:04:22;;;;;;;5.55;3.75;;;23.50;42.00;;;;;;5029459;28;43791;-64
2022/01/16 13:06:50;;;;;;;5.47;3.78;;;23.50;41.90;;;;;;5045219;28;43587;-65
2022/01/16 13:09:18;;;;;;;5.03;3.55;;;23.50;42.60;;;;;;5047335;28;45783;-64
2022/01/16 13:11:48;;;;;;;5.70;3.22;;;23.50;42.10;;;;;;5042391;28;43492;-64
2022/01/16 13:14:22;;;;;;;5.53;3.38;;;23.50;42.10;;;;;;5044007;28;43591;-65
2022/01/16 13:16:52;;;;;;;3.97;3.17;;;23.40;42.00;;;;;;5048984;28;43626;-65
2022/01/16 13:19:25;;;;;;;4.45;3.13;;;23.50;42.20;;;;;;5066274;28;43841;-65
2022/01/16 13:22:11;;;;;;;4.80;3.10;;;23.40;42.00;;;;;;5050175;28;43498;-64
2022/01/16 13:24:49;;;;;;;4.28;3.05;;;23.40;42.10;;;;;;5050248;28;43495;-65
2022/01/16 13:27:21;;;;;;;4.70;3.10;;;23.40;42.70;;;;;;5084225;27;43620;-64
2022/01/16 13:29:54;;;;;;;3.72;3.22;;;23.40;42.10;;;;;;5049966;28;44062;-64
2022/01/16 13:32:30;;;;;;;4.32;3.03;;;23.40;42.00;;;;;;5045278;28;44626;-65
2022/01/16 13:35:17;;;;;;;4.22;3.10;;;23.30;41.90;;;;;;5046288;28;43981;-64
2022/01/16 13:37:46;;;;;;;4.00;3.03;;;23.30;42.00;;;;;;5030631;28;43635;-64
2022/01/16 13:40:16;;;;;;;3.95;3.22;;;23.30;42.00;;;;;;5052013;28;46620;-64